createdAt,value
2022-12-23T00:00:28.625Z,99667.72
2022-12-23T00:02:55.691Z,99665.72
2022-12-23T00:05:22.656Z,99669.06
2022-12-23T00:07:49.477Z,99664.94
2022-12-23T00:10:16.235Z,99662.97
2022-12-23T00:13:01.981Z,99662.69
2022-12-23T00:15:28.733Z,99657.72
2022-12-23T00:17:55.519Z,99653.31
2022-12-23T00:20:22.269Z,99650.56
2022-12-23T00:23:07.226Z,99645.00
2022-12-23T00:25:46.446Z,99645.00
2022-12-23T00:28:14.262Z,99642.25
2022-12-23T00:30:41.008Z,99640.03
2022-12-23T00:33:07.765Z,99634.22
2022-12-23T00:35:34.517Z,99641.13
2022-12-23T00:38:01.294Z,99632.31
2022-12-23T00:40:46.854Z,99632.28
2022-12-23T00:43:13.591Z,99627.25
2022-12-23T00:45:40.386Z,99624.78
2022-12-23T00:48:26.012Z,99621.13
2022-12-23T00:50:53.217Z,99610.88
2022-12-23T00:53:19.992Z,99602.91
2022-12-23T00:55:47.675Z,99603.75
2022-12-23T00:58:14.453Z,99602.06
2022-12-23T01:00:59.777Z,99594.84
2022-12-23T01:03:45.094Z,99599.59
2022-12-23T01:06:11.862Z,99606.28
2022-12-23T01:08:38.651Z,99596.31
2022-12-23T01:11:05.374Z,99595.47
2022-12-23T01:13:32.144Z,99593.66
2022-12-23T01:15:58.892Z,99597.38
2022-12-23T01:18:25.633Z,99589.06
2022-12-23T01:20:52.379Z,99596.00
2022-12-23T01:23:19.110Z,99585.75
2022-12-23T01:25:45.904Z,99591.84
2022-12-23T01:28:12.726Z,99582.47
2022-12-23T01:30:39.461Z,99582.50
2022-12-23T01:33:06.203Z,99578.63
2022-12-23T01:35:32.968Z,99574.69
2022-12-23T01:37:59.750Z,99575.53
2022-12-23T01:40:26.499Z,99572.16
2022-12-23T01:42:53.264Z,99572.19
2022-12-23T01:45:20.042Z,99573.53
2022-12-23T01:47:46.833Z,99570.22
2022-12-23T01:50:13.632Z,99570.56
2022-12-23T01:52:40.479Z,99552.53
2022-12-23T01:55:07.211Z,99556.41
2022-12-23T01:57:33.972Z,99549.84
2022-12-23T02:00:19.492Z,99548.44
2022-12-23T02:03:05.029Z,99547.00
2022-12-23T02:05:31.890Z,99546.16
2022-12-23T02:08:17.595Z,99552.00
2022-12-23T02:10:44.346Z,99549.25
2022-12-23T02:13:11.081Z,99549.56
2022-12-23T02:15:56.314Z,99550.38
2022-12-23T02:18:23.057Z,99551.16
2022-12-23T02:20:49.790Z,99542.06
2022-12-23T02:23:16.569Z,99556.44
2022-12-23T02:25:43.383Z,99542.06
2022-12-23T02:28:10.162Z,99545.91
2022-12-23T02:30:37.108Z,99545.94
2022-12-23T02:33:03.944Z,99547.63
2022-12-23T02:35:30.698Z,99549.53
2022-12-23T02:37:57.437Z,99552.28
2022-12-23T02:40:24.180Z,99548.44
2022-12-23T02:42:50.919Z,99549.78
2022-12-23T02:45:17.688Z,99550.00
2022-12-23T02:47:44.451Z,99554.75
2022-12-23T02:50:11.188Z,99540.66
2022-12-23T02:52:37.977Z,99548.38
2022-12-23T02:55:04.718Z,99542.88
2022-12-23T02:57:31.478Z,99542.59
2022-12-23T02:59:58.242Z,99543.19
2022-12-23T03:02:25.301Z,99533.72
2022-12-23T03:04:52.159Z,99544.78
2022-12-23T03:07:19.013Z,99549.44
2022-12-23T03:09:45.776Z,99548.72
2022-12-23T03:12:12.533Z,99550.38
2022-12-23T03:14:39.294Z,99546.47
2022-12-23T03:17:06.044Z,99553.34
2022-12-23T03:19:32.873Z,99542.59
2022-12-23T03:21:59.641Z,99537.59
2022-12-23T03:24:26.391Z,99545.09
2022-12-23T03:26:53.196Z,99542.03
2022-12-23T03:29:19.964Z,99543.41
2022-12-23T03:31:46.699Z,99550.91
2022-12-23T03:34:13.468Z,99550.13
2022-12-23T03:36:40.403Z,99543.75
2022-12-23T03:39:07.143Z,99544.00
2022-12-23T03:41:33.880Z,99554.25
2022-12-23T03:44:00.629Z,99554.22
2022-12-23T03:46:27.407Z,99556.72
2022-12-23T03:48:54.169Z,99553.97
2022-12-23T03:51:20.962Z,99553.16
2022-12-23T03:53:47.733Z,99554.78
2022-12-23T03:56:14.576Z,99549.84
2022-12-23T03:58:41.402Z,99545.13
2022-12-23T04:01:08.159Z,99556.91
2022-12-23T04:03:34.952Z,99546.47
2022-12-23T04:06:01.838Z,99550.88
2022-12-23T04:08:28.569Z,99552.00
2022-12-23T04:10:55.355Z,99550.88
2022-12-23T04:13:22.150Z,99559.25
2022-12-23T04:15:48.985Z,99551.75
2022-12-23T04:18:16.333Z,99561.44
2022-12-23T04:20:43.153Z,99547.59
2022-12-23T04:23:09.936Z,99555.31
2022-12-23T04:25:36.700Z,99555.06
2022-12-23T04:28:03.476Z,99563.41
2022-12-23T04:30:34.387Z,99569.22
2022-12-23T04:33:01.727Z,99559.25
2022-12-23T04:35:28.489Z,99565.34
2022-12-23T04:37:55.237Z,99565.59
2022-12-23T04:40:21.995Z,99570.31
2022-12-23T04:42:48.755Z,99571.97
2022-12-23T04:45:15.742Z,99578.91
2022-12-23T04:47:42.587Z,99580.53
2022-12-23T04:50:09.385Z,99583.00
2022-12-23T04:52:36.121Z,99574.16
2022-12-23T04:55:02.865Z,99581.66
2022-12-23T04:57:29.689Z,99580.22
2022-12-23T04:59:56.489Z,99585.22
2022-12-23T05:02:23.305Z,99571.69
2022-12-23T05:04:50.135Z,99586.88
2022-12-23T05:07:16.909Z,99588.81
2022-12-23T05:09:43.694Z,99590.50
2022-12-23T05:12:10.445Z,99582.47
2022-12-23T05:14:37.319Z,99579.16
2022-12-23T05:17:07.626Z,99572.50
2022-12-23T05:19:34.840Z,99582.50
2022-12-23T05:22:01.587Z,99575.28
2022-12-23T05:24:28.325Z,99573.88
2022-12-23T05:26:59.745Z,99580.81
2022-12-23T05:29:27.291Z,99586.28
2022-12-23T05:31:54.244Z,99586.91
2022-12-23T05:34:21.201Z,99581.91
2022-12-23T05:36:47.978Z,99589.41
2022-12-23T05:39:14.718Z,99593.28
2022-12-23T05:41:41.486Z,99594.66
2022-12-23T05:44:08.223Z,99600.75
2022-12-23T05:46:35.094Z,99596.84
2022-12-23T05:49:01.941Z,99587.38
2022-12-23T05:51:28.693Z,99596.53
2022-12-23T05:53:55.432Z,99601.56
2022-12-23T05:56:22.167Z,99602.44
2022-12-23T05:58:48.902Z,99595.50
2022-12-23T06:01:15.642Z,99595.19
2022-12-23T06:03:42.657Z,99611.03
2022-12-23T06:06:09.535Z,99604.34
2022-12-23T06:08:36.258Z,99604.28
2022-12-23T06:11:03.019Z,99604.06
2022-12-23T06:13:29.783Z,99615.69
2022-12-23T06:15:56.524Z,99620.13
2022-12-23T06:18:23.268Z,99624.28
2022-12-23T06:20:49.994Z,99624.50
2022-12-23T06:23:16.748Z,99623.47
2022-12-23T06:25:43.516Z,99616.81
2022-12-23T06:28:10.251Z,99629.53
2022-12-23T06:30:36.981Z,99631.16
2022-12-23T06:33:03.734Z,99632.88
2022-12-23T06:35:30.464Z,99630.63
2022-12-23T06:37:57.246Z,99632.28
2022-12-23T06:40:23.974Z,99641.72
2022-12-23T06:42:50.747Z,99645.00
2022-12-23T06:45:17.528Z,99649.69
2022-12-23T06:47:44.557Z,99651.66
2022-12-23T06:50:11.300Z,99657.22
2022-12-23T06:52:38.064Z,99671.56
2022-12-23T06:55:04.899Z,99667.19
2022-12-23T06:57:31.642Z,99673.25
2022-12-23T06:59:58.398Z,99677.41
2022-12-23T07:02:25.275Z,99679.66
2022-12-23T07:04:52.094Z,99671.63
2022-12-23T07:07:18.819Z,99680.16
2022-12-23T07:09:45.731Z,99687.41
2022-12-23T07:12:12.498Z,99690.66
2022-12-23T07:14:39.263Z,99687.59
2022-12-23T07:17:06.238Z,99696.50
2022-12-23T07:19:34.016Z,99688.72
2022-12-23T07:22:01.489Z,99695.38
2022-12-23T07:24:28.429Z,99692.63
2022-12-23T07:26:55.855Z,99704.84
2022-12-23T07:29:22.677Z,99712.03
2022-12-23T07:31:49.528Z,99716.44
2022-12-23T07:34:16.402Z,99723.66
2022-12-23T07:36:43.183Z,99721.97
2022-12-23T07:39:09.946Z,99721.47
2022-12-23T07:41:36.680Z,99726.72
2022-12-23T07:44:03.400Z,99723.34
2022-12-23T07:46:30.350Z,99732.19
2022-12-23T07:48:57.143Z,99725.00
2022-12-23T07:51:23.874Z,99725.28
2022-12-23T07:53:50.655Z,99725.84
2022-12-23T07:56:17.409Z,99722.25
2022-12-23T07:58:44.158Z,99734.16
2022-12-23T08:01:10.920Z,99731.88
2022-12-23T08:03:37.790Z,99733.03
2022-12-23T08:06:04.617Z,99744.66
2022-12-23T08:08:31.441Z,99745.50
2022-12-23T08:10:58.824Z,99742.47
2022-12-23T08:13:25.573Z,99741.34
2022-12-23T08:15:52.360Z,99753.22
2022-12-23T08:18:19.131Z,99755.75
2022-12-23T08:20:45.860Z,99759.06
2022-12-23T08:23:12.598Z,99761.56
2022-12-23T08:25:39.329Z,99773.72
2022-12-23T08:28:06.050Z,99770.09
2022-12-23T08:30:32.929Z,99771.81
2022-12-23T08:32:59.680Z,99783.44
2022-12-23T08:35:26.415Z,99780.09
2022-12-23T08:37:53.150Z,99792.81
2022-12-23T08:40:19.920Z,99793.94
2022-12-23T08:42:46.694Z,99787.31
2022-12-23T08:45:13.476Z,99798.91
2022-12-23T08:47:40.335Z,99806.13
2022-12-23T08:50:07.073Z,99803.31
2022-12-23T08:52:34.038Z,99798.63
2022-12-23T08:55:00.765Z,99807.22
2022-12-23T08:57:27.493Z,99819.69
2022-12-23T08:59:54.257Z,99829.94
2022-12-23T09:02:21.115Z,99825.53
2022-12-23T09:04:47.966Z,99833.78
2022-12-23T09:07:14.716Z,99834.91
2022-12-23T09:09:41.457Z,99839.38
2022-12-23T09:12:08.180Z,99838.81
2022-12-23T09:14:34.959Z,99839.59
2022-12-23T09:17:01.738Z,99846.28
2022-12-23T09:19:28.524Z,99848.47
2022-12-23T09:21:55.341Z,99857.59
2022-12-23T09:24:22.085Z,99842.66
2022-12-23T09:26:48.818Z,99852.63
2022-12-23T09:29:15.575Z,99854.56
2022-12-23T09:31:42.385Z,99853.50
2022-12-23T09:34:09.212Z,99854.03
2022-12-23T09:36:36.001Z,99854.56
2022-12-23T09:39:02.763Z,99859.84
2022-12-23T09:41:29.507Z,99850.97
2022-12-23T09:43:56.271Z,99856.78
2022-12-23T09:46:23.043Z,99856.22
2022-12-23T09:48:49.823Z,99861.50
2022-12-23T09:51:16.605Z,99878.66
2022-12-23T09:53:43.357Z,99866.78
2022-12-23T09:56:10.085Z,99869.78
2022-12-23T09:58:36.847Z,99865.34
2022-12-23T10:01:03.591Z,99860.94
2022-12-23T10:03:30.439Z,99860.41
2022-12-23T10:05:57.427Z,99863.44
2022-12-23T10:08:24.177Z,99873.13
2022-12-23T10:10:50.981Z,99870.91
2022-12-23T10:13:17.746Z,99867.03
2022-12-23T10:15:44.538Z,99871.19
2022-12-23T10:18:11.353Z,99876.72
2022-12-23T10:20:38.153Z,99878.09
2022-12-23T10:23:04.933Z,99867.03
2022-12-23T10:25:31.712Z,99867.28
2022-12-23T10:27:58.474Z,99877.81
2022-12-23T10:33:12.011Z,99876.16
2022-12-23T10:35:38.768Z,99878.09
2022-12-23T10:38:05.513Z,99884.47
2022-12-23T10:40:32.262Z,99883.06
2022-12-23T10:42:58.981Z,99888.09
2022-12-23T10:45:25.729Z,99894.72
2022-12-23T10:47:52.755Z,99895.28
2022-12-23T10:50:19.485Z,99903.03
2022-12-23T10:52:46.326Z,99895.56
2022-12-23T10:55:13.062Z,99903.59
2022-12-23T10:57:39.790Z,99893.63
2022-12-23T11:00:06.685Z,99901.38
2022-12-23T11:02:33.716Z,99901.09
2022-12-23T11:05:00.597Z,99904.69
2022-12-23T11:07:43.891Z,99902.75
2022-12-23T11:10:12.149Z,99905.25
2022-12-23T11:12:42.187Z,99906.06
2022-12-23T11:15:09.544Z,99909.13
2022-12-23T11:17:36.295Z,99911.31
2022-12-23T11:20:03.531Z,99908.56
2022-12-23T11:22:30.267Z,99912.72
2022-12-23T11:24:57.023Z,99912.44
2022-12-23T11:27:23.807Z,99905.25
2022-12-23T11:29:50.567Z,99900.78
2022-12-23T11:32:17.422Z,99908.56
2022-12-23T11:34:44.169Z,99905.25
2022-12-23T11:37:10.934Z,99896.41
2022-12-23T11:39:37.746Z,99903.59
2022-12-23T11:42:04.501Z,99893.06
2022-12-23T11:44:31.231Z,99891.94
2022-12-23T11:46:57.994Z,99887.81
2022-12-23T11:49:24.739Z,99875.88
2022-12-23T11:51:51.488Z,99888.03
2022-12-23T11:54:18.351Z,99890.00
2022-12-23T11:56:45.157Z,99892.50
2022-12-23T11:59:11.918Z,99894.69
2022-12-23T12:01:39.270Z,99900.25
2022-12-23T12:04:06.124Z,99896.09
2022-12-23T12:06:32.887Z,99892.50
2022-12-23T12:08:59.674Z,99884.47
2022-12-23T12:11:26.428Z,99886.38
2022-12-23T12:13:53.166Z,99881.69
2022-12-23T12:16:20.110Z,99877.28
2022-12-23T12:18:51.952Z,99879.19
2022-12-23T12:21:22.084Z,99877.53
2022-12-23T12:23:48.815Z,99887.22
2022-12-23T12:26:15.749Z,99870.06
2022-12-23T12:28:42.487Z,99870.06
2022-12-23T12:31:09.342Z,99871.47
2022-12-23T12:33:36.204Z,99874.75
2022-12-23T12:36:05.576Z,99862.59
2022-12-23T12:38:32.558Z,99860.94
2022-12-23T12:40:59.300Z,99864.25
2022-12-23T12:43:26.046Z,99858.19
2022-12-23T12:45:52.854Z,99868.41
2022-12-23T12:48:22.296Z,99861.47
2022-12-23T12:50:49.156Z,99872.53
2022-12-23T12:53:15.970Z,99869.22
2022-12-23T12:55:42.843Z,99873.66
2022-12-23T12:58:09.593Z,99864.81
2022-12-23T13:00:36.318Z,99868.69
2022-12-23T13:03:03.119Z,99852.59
2022-12-23T13:05:29.964Z,99854.78
2022-12-23T13:07:56.714Z,99844.84
2022-12-23T13:10:23.455Z,99832.13
2022-12-23T13:12:50.225Z,99824.09
2022-12-23T13:15:16.954Z,99830.69
2022-12-23T13:17:43.679Z,99805.78
2022-12-23T13:20:10.439Z,99806.31
2022-12-23T13:22:38.385Z,99793.03
2022-12-23T13:25:06.240Z,99793.31
2022-12-23T13:27:33.756Z,99785.28
2022-12-23T13:30:00.509Z,99801.63
2022-12-23T13:32:27.254Z,99796.09
2022-12-23T13:34:54.072Z,99799.94
2022-12-23T13:37:20.937Z,99800.81
2022-12-23T13:39:47.706Z,99801.09
2022-12-23T13:42:14.993Z,99797.19
2022-12-23T13:44:41.767Z,99789.75
2022-12-23T13:47:08.573Z,99785.56
2022-12-23T13:49:35.426Z,99793.63
2022-12-23T13:52:02.173Z,99781.69
2022-12-23T13:54:28.914Z,99785.00
2022-12-23T13:56:55.664Z,99788.56
2022-12-23T13:59:22.403Z,99792.78
2022-12-23T14:01:49.237Z,99787.78
2022-12-23T14:04:16.104Z,99792.22
2022-12-23T14:06:42.947Z,99781.69
2022-12-23T14:09:09.734Z,99784.41
2022-12-23T14:11:36.589Z,99778.09
2022-12-23T14:14:03.584Z,99786.97
2022-12-23T14:16:30.375Z,99789.44
2022-12-23T14:18:57.196Z,99793.31
2022-12-23T14:21:23.968Z,99787.25
2022-12-23T14:23:50.790Z,99789.75
2022-12-23T14:26:17.534Z,99792.22
2022-12-23T14:28:44.262Z,99783.31
2022-12-23T14:31:11.075Z,99782.75
2022-12-23T14:33:38.050Z,99788.28
2022-12-23T14:36:04.847Z,99789.97
2022-12-23T14:38:31.777Z,99787.50
2022-12-23T14:40:58.665Z,99790.25
2022-12-23T14:43:25.407Z,99777.28
2022-12-23T14:45:52.201Z,99784.13
2022-12-23T14:48:18.945Z,99778.91
2022-12-23T14:50:45.684Z,99784.19
2022-12-23T14:53:12.430Z,99780.56
2022-12-23T14:55:39.189Z,99777.84
2022-12-23T14:58:07.867Z,99776.97
2022-12-23T15:00:34.761Z,99778.91
2022-12-23T15:03:01.790Z,99782.47
2022-12-23T15:05:28.587Z,99780.56
2022-12-23T15:07:56.759Z,99794.94
2022-12-23T15:10:23.856Z,99781.91
2022-12-23T15:12:50.867Z,99780.84
2022-12-23T15:15:17.639Z,99788.56
2022-12-23T15:17:44.402Z,99794.41
2022-12-23T15:20:11.448Z,99777.22
2022-12-23T15:22:38.296Z,99767.81
2022-12-23T15:25:05.049Z,99761.16
2022-12-23T15:27:31.868Z,99760.66
2022-12-23T15:29:58.714Z,99773.06
2022-12-23T15:32:25.537Z,99770.59
2022-12-23T15:34:52.299Z,99771.13
2022-12-23T15:37:19.560Z,99769.75
2022-12-23T15:39:46.886Z,99771.16
2022-12-23T15:42:13.672Z,99770.03
2022-12-23T15:44:40.401Z,99782.22
2022-12-23T15:47:08.441Z,99779.44
2022-12-23T15:49:35.215Z,99775.00
2022-12-23T15:52:13.750Z,99779.97
2022-12-23T15:54:46.527Z,99775.56
2022-12-23T15:57:13.266Z,99779.75
2022-12-23T15:59:40.010Z,99772.22
2022-12-23T16:02:24.864Z,99770.34
2022-12-23T16:04:54.619Z,99762.03
2022-12-23T16:07:21.385Z,99752.84
2022-12-23T16:09:48.140Z,99741.25
2022-12-23T16:12:15.099Z,99743.41
2022-12-23T16:14:41.949Z,99732.38
2022-12-23T16:17:08.701Z,99731.25
2022-12-23T16:19:35.432Z,99730.72
2022-12-23T16:22:02.186Z,99717.97
2022-12-23T16:24:29.747Z,99717.94
2022-12-23T16:26:56.562Z,99716.03
2022-12-23T16:29:23.327Z,99711.84
2022-12-23T16:31:54.429Z,99706.84
2022-12-23T16:34:26.022Z,99700.00
2022-12-23T16:36:52.946Z,99696.38
2022-12-23T16:39:20.125Z,99684.75
2022-12-23T16:41:46.883Z,99695.84
2022-12-23T16:44:13.636Z,99690.84
2022-12-23T16:46:41.467Z,99688.25
2022-12-23T16:49:10.787Z,99679.44
2022-12-23T16:51:37.572Z,99666.38
2022-12-23T16:54:04.401Z,99665.88
2022-12-23T16:56:31.159Z,99657.25
2022-12-23T16:58:57.899Z,99648.72
2022-12-23T17:01:24.703Z,99653.09
2022-12-23T17:03:51.598Z,99646.19
2022-12-23T17:06:18.345Z,99641.81
2022-12-23T17:08:45.091Z,99640.34
2022-12-23T17:11:11.834Z,99634.84
2022-12-23T17:13:38.579Z,99633.22
2022-12-23T17:16:05.339Z,99633.44
2022-12-23T17:18:32.408Z,99638.16
2022-12-23T17:20:59.208Z,99627.13
2022-12-23T17:23:26.046Z,99634.84
2022-12-23T17:25:52.892Z,99634.25
2022-12-23T17:28:19.733Z,99633.69
2022-12-23T17:30:46.519Z,99632.09
2022-12-23T17:33:13.279Z,99635.06
2022-12-23T17:35:40.121Z,99617.69
2022-12-23T17:38:06.861Z,99624.59
2022-12-23T17:40:33.660Z,99619.84
2022-12-23T17:43:00.404Z,99609.38
2022-12-23T17:45:27.546Z,99600.00
2022-12-23T17:47:54.585Z,99607.78
2022-12-23T17:50:21.383Z,99611.59
2022-12-23T17:52:48.153Z,99608.84
2022-12-23T17:55:15.383Z,99597.63
2022-12-23T17:57:42.166Z,99600.72
2022-12-23T18:00:08.890Z,99599.44
2022-12-23T18:02:35.707Z,99609.34
2022-12-23T18:05:02.748Z,99603.88
2022-12-23T18:07:29.520Z,99602.22
2022-12-23T18:09:56.272Z,99611.09
2022-12-23T18:12:25.235Z,99611.34
2022-12-23T18:14:52.172Z,99616.63
2022-12-23T18:17:18.927Z,99607.78
2022-12-23T18:19:45.680Z,99598.84
2022-12-23T18:22:12.401Z,99598.88
2022-12-23T18:24:39.155Z,99600.69
2022-12-23T18:27:05.913Z,99600.28
2022-12-23T18:29:32.761Z,99594.97
2022-12-23T18:31:59.503Z,99599.91
2022-12-23T18:34:26.309Z,99599.31
2022-12-23T18:36:53.132Z,99598.84
2022-12-23T18:39:20.292Z,99587.25
2022-12-23T18:41:47.085Z,99570.59
2022-12-23T18:44:13.867Z,99576.47
2022-12-23T18:46:40.760Z,99573.06
2022-12-23T18:49:07.522Z,99567.84
2022-12-23T18:51:34.259Z,99555.38
2022-12-23T18:54:01.014Z,99561.72
2022-12-23T18:56:27.822Z,99549.53
2022-12-23T18:58:54.595Z,99545.53
2022-12-23T19:01:21.565Z,99546.84
2022-12-23T19:03:48.431Z,99534.94
2022-12-23T19:06:15.176Z,99526.31
2022-12-23T19:08:41.960Z,99517.75
2022-12-23T19:11:08.695Z,99520.28
2022-12-23T19:13:35.496Z,99521.31
2022-12-23T19:16:02.361Z,99513.25
2022-12-23T19:18:29.173Z,99512.44
2022-12-23T19:20:55.953Z,99507.66
2022-12-23T19:23:22.760Z,99500.88
2022-12-23T19:25:55.308Z,99505.63
2022-12-23T19:28:22.310Z,99517.44
2022-12-23T19:30:49.240Z,99503.91
2022-12-23T19:33:16.144Z,99506.91
2022-12-23T19:35:42.916Z,99503.31
2022-12-23T19:38:09.732Z,99503.38
2022-12-23T19:40:36.461Z,99498.63
2022-12-23T19:43:03.249Z,99502.19
2022-12-23T19:45:30.041Z,99506.09
2022-12-23T19:47:56.820Z,99506.34
2022-12-23T19:50:23.606Z,99513.56
2022-12-23T19:52:50.649Z,99509.97
2022-12-23T19:55:17.428Z,99503.59
2022-12-23T19:57:44.176Z,99502.94
2022-12-23T20:00:10.972Z,99506.31
2022-12-23T20:02:37.754Z,99499.13
2022-12-23T20:05:04.577Z,99491.72
2022-12-23T20:07:31.365Z,99471.94
2022-12-23T20:09:58.114Z,99460.94
2022-12-23T20:12:26.260Z,99465.34
2022-12-23T20:14:53.008Z,99447.97
2022-12-23T20:17:19.741Z,99456.38
2022-12-23T20:19:46.660Z,99467.09
2022-12-23T20:22:13.638Z,99477.91
2022-12-23T20:24:40.405Z,99479.28
2022-12-23T20:27:11.360Z,99478.28
2022-12-23T20:29:39.376Z,99472.28
2022-12-23T20:32:06.181Z,99453.69
2022-12-23T20:34:38.616Z,99452.09
2022-12-23T20:37:05.784Z,99442.09
2022-12-23T20:39:32.571Z,99451.84
2022-12-23T20:41:59.360Z,99445.75
2022-12-23T20:44:35.575Z,99450.13
2022-12-23T20:47:03.225Z,99452.00
2022-12-23T20:49:30.176Z,99442.44
2022-12-23T20:51:56.922Z,99439.13
2022-12-23T20:54:28.114Z,99450.44
2022-12-23T20:56:58.684Z,99449.88
2022-12-23T20:59:25.443Z,99454.28
2022-12-23T21:01:52.281Z,99457.81
2022-12-23T21:04:19.072Z,99446.16
2022-12-23T21:06:45.831Z,99447.72
2022-12-23T21:09:12.637Z,99446.81
2022-12-23T21:11:39.443Z,99437.75
2022-12-23T21:14:07.420Z,99432.75
2022-12-23T21:16:34.694Z,99423.56
2022-12-23T21:19:01.560Z,99431.50
2022-12-23T21:21:28.369Z,99426.16
2022-12-23T21:23:55.131Z,99418.84
2022-12-23T21:26:21.906Z,99418.28
2022-12-23T21:28:48.726Z,99420.63
2022-12-23T21:31:15.602Z,99421.00
2022-12-23T21:33:42.510Z,99418.28
2022-12-23T21:36:09.379Z,99416.91
2022-12-23T21:38:36.293Z,99414.13
2022-12-23T21:41:03.083Z,99427.97
2022-12-23T21:43:29.905Z,99427.78
2022-12-23T21:45:56.997Z,99438.22
2022-12-23T21:48:23.771Z,99426.28
2022-12-23T21:50:50.619Z,99424.97
2022-12-23T21:53:17.419Z,99424.47
2022-12-23T21:55:44.181Z,99424.06
2022-12-23T21:58:10.935Z,99439.13
2022-12-23T22:00:37.716Z,99448.31
2022-12-23T22:03:04.633Z,99456.03
2022-12-23T22:05:31.455Z,99452.16
2022-12-23T22:07:58.199Z,99441.00
2022-12-23T22:10:25.046Z,99432.66
2022-12-23T22:12:51.800Z,99435.56
2022-12-23T22:15:19.179Z,99434.88
2022-12-23T22:17:45.962Z,99433.28
2022-12-23T22:20:12.702Z,99430.09
2022-12-23T22:22:39.443Z,99431.97
2022-12-23T22:25:06.329Z,99442.09
2022-12-23T22:27:33.682Z,99448.09
2022-12-23T22:30:00.459Z,99441.13
2022-12-23T22:32:27.205Z,99452.38
2022-12-23T22:34:53.937Z,99446.06
2022-12-23T22:37:20.688Z,99448.59
2022-12-23T22:39:47.660Z,99447.34
2022-12-23T22:42:14.411Z,99443.88
2022-12-23T22:44:41.180Z,99464.09
2022-12-23T22:47:07.947Z,99476.91
2022-12-23T22:49:34.783Z,99471.53
2022-12-23T22:52:01.508Z,99471.59
2022-12-23T22:54:28.269Z,99478.72
2022-12-23T22:56:55.005Z,99493.75
2022-12-23T22:59:21.834Z,99481.50
2022-12-23T23:01:48.714Z,99484.63
2022-12-23T23:04:15.511Z,99478.72
2022-12-23T23:06:42.439Z,99497.56
2022-12-23T23:09:09.187Z,99488.38
2022-12-23T23:11:35.943Z,99492.84
2022-12-23T23:14:02.675Z,99497.56
2022-12-23T23:16:29.499Z,99486.25
2022-12-23T23:18:56.307Z,99483.72
2022-12-23T23:21:23.089Z,99489.81
2022-12-23T23:23:50.062Z,99494.81
2022-12-23T23:26:17.007Z,99497.06
2022-12-23T23:28:43.796Z,99495.88
2022-12-23T23:31:40.363Z,99508.06
2022-12-23T23:33:57.773Z,99511.13
2022-12-23T23:36:24.731Z,99510.31
2022-12-23T23:38:51.487Z,99513.59
2022-12-23T23:41:22.916Z,99514.00
2022-12-23T23:43:50.862Z,99524.47
2022-12-23T23:46:17.685Z,99537.44
2022-12-23T23:48:44.466Z,99543.53
2022-12-23T23:51:12.444Z,99558.16
2022-12-23T23:53:39.226Z,99550.25
2022-12-23T23:56:06.019Z,99551.50
2022-12-23T23:58:32.863Z,99552.66
